sensor_id;sensor_type;location;lat;lon;timestamp;P1;durP1;ratioP1;P2;durP2;ratioP2
67941;SDS011;54731;42.600;23.476;2024-03-17T00:01:39;29.67;;;12.97;;
67941;SDS011;54731;42.600;23.476;2024-03-17T00:04:05;15.87;;;9.03;;
67941;SDS011;54731;42.600;23.476;2024-03-17T00:06:30;15.40;;;8.27;;
67941;SDS011;54731;42.600;23.476;2024-03-17T00:08:55;15.37;;;8.40;;
67941;SDS011;54731;42.600;23.476;2024-03-17T00:11:21;16.20;;;8.07;;
67941;SDS011;54731;42.600;23.476;2024-03-17T00:13:46;12.30;;;7.43;;
67941;SDS011;54731;42.600;23.476;2024-03-17T00:16:11;14.93;;;8.53;;
67941;SDS011;54731;42.600;23.476;2024-03-17T00:18:36;16.70;;;7.37;;
67941;SDS011;54731;42.600;23.476;2024-03-17T00:21:02;16.38;;;8.77;;
67941;SDS011;54731;42.600;23.476;2024-03-17T00:23:27;17.63;;;8.27;;
67941;SDS011;54731;42.600;23.476;2024-03-17T00:25:54;14.23;;;7.57;;
67941;SDS011;54731;42.600;23.476;2024-03-17T00:28:20;13.63;;;8.10;;
67941;SDS011;54731;42.600;23.476;2024-03-17T00:30:45;15.90;;;7.97;;
67941;SDS011;54731;42.600;23.476;2024-03-17T00:33:10;13.37;;;7.07;;
67941;SDS011;54731;42.600;23.476;2024-03-17T00:35:36;16.63;;;7.73;;
67941;SDS011;54731;42.600;23.476;2024-03-17T00:38:01;14.03;;;7.00;;
67941;SDS011;54731;42.600;23.476;2024-03-17T00:40:26;13.17;;;6.73;;
67941;SDS011;54731;42.600;23.476;2024-03-17T00:42:51;13.93;;;7.07;;
67941;SDS011;54731;42.600;23.476;2024-03-17T00:45:17;15.90;;;7.70;;
67941;SDS011;54731;42.600;23.476;2024-03-17T00:47:42;11.98;;;6.45;;
67941;SDS011;54731;42.600;23.476;2024-03-17T00:50:08;16.27;;;7.13;;
67941;SDS011;54731;42.600;23.476;2024-03-17T00:52:33;11.60;;;6.90;;
67941;SDS011;54731;42.600;23.476;2024-03-17T00:54:59;12.27;;;6.97;;
67941;SDS011;54731;42.600;23.476;2024-03-17T00:57:25;12.23;;;7.27;;
67941;SDS011;54731;42.600;23.476;2024-03-17T00:59:50;10.20;;;6.37;;
67941;SDS011;54731;42.600;23.476;2024-03-17T01:02:16;11.18;;;6.32;;
67941;SDS011;54731;42.600;23.476;2024-03-17T01:04:41;14.10;;;7.20;;
67941;SDS011;54731;42.600;23.476;2024-03-17T01:07:08;12.20;;;6.68;;
67941;SDS011;54731;42.600;23.476;2024-03-17T01:09:33;12.20;;;7.03;;
67941;SDS011;54731;42.600;23.476;2024-03-17T01:11:58;12.03;;;7.30;;
67941;SDS011;54731;42.600;23.476;2024-03-17T01:14:24;10.43;;;7.17;;
67941;SDS011;54731;42.600;23.476;2024-03-17T01:16:52;12.63;;;7.13;;
67941;SDS011;54731;42.600;23.476;2024-03-17T01:19:17;12.02;;;7.07;;
67941;SDS011;54731;42.600;23.476;2024-03-17T01:21:43;11.70;;;6.80;;
67941;SDS011;54731;42.600;23.476;2024-03-17T01:24:08;13.50;;;7.03;;
67941;SDS011;54731;42.600;23.476;2024-03-17T01:26:33;12.93;;;7.37;;
67941;SDS011;54731;42.600;23.476;2024-03-17T01:28:59;19.23;;;7.75;;
67941;SDS011;54731;42.600;23.476;2024-03-17T01:31:24;11.43;;;7.00;;
67941;SDS011;54731;42.600;23.476;2024-03-17T01:33:49;13.97;;;7.53;;
67941;SDS011;54731;42.600;23.476;2024-03-17T01:36:14;16.97;;;8.23;;
67941;SDS011;54731;42.600;23.476;2024-03-17T01:38:40;13.60;;;6.53;;
67941;SDS011;54731;42.600;23.476;2024-03-17T01:41:05;11.87;;;6.80;;
67941;SDS011;54731;42.600;23.476;2024-03-17T01:43:30;12.77;;;7.03;;
67941;SDS011;54731;42.600;23.476;2024-03-17T01:45:56;12.33;;;7.63;;
67941;SDS011;54731;42.600;23.476;2024-03-17T01:48:23;15.60;;;7.50;;
67941;SDS011;54731;42.600;23.476;2024-03-17T01:50:49;12.40;;;6.93;;
67941;SDS011;54731;42.600;23.476;2024-03-17T01:53:17;13.95;;;7.13;;
67941;SDS011;54731;42.600;23.476;2024-03-17T01:55:43;14.00;;;7.80;;
67941;SDS011;54731;42.600;23.476;2024-03-17T01:58:10;10.90;;;7.47;;
67941;SDS011;54731;42.600;23.476;2024-03-17T02:00:36;14.33;;;6.50;;
67941;SDS011;54731;42.600;23.476;2024-03-17T02:03:03;16.73;;;7.80;;
67941;SDS011;54731;42.600;23.476;2024-03-17T02:05:32;12.30;;;6.78;;
67941;SDS011;54731;42.600;23.476;2024-03-17T02:07:57;13.73;;;7.43;;
67941;SDS011;54731;42.600;23.476;2024-03-17T02:10:23;15.50;;;7.50;;
67941;SDS011;54731;42.600;23.476;2024-03-17T02:12:48;16.33;;;8.37;;
67941;SDS011;54731;42.600;23.476;2024-03-17T02:15:13;15.23;;;8.37;;
67941;SDS011;54731;42.600;23.476;2024-03-17T02:17:39;16.20;;;8.30;;
67941;SDS011;54731;42.600;23.476;2024-03-17T02:20:05;13.82;;;7.90;;
67941;SDS011;54731;42.600;23.476;2024-03-17T02:22:31;13.35;;;7.30;;
67941;SDS011;54731;42.600;23.476;2024-03-17T02:24:56;15.90;;;7.60;;
67941;SDS011;54731;42.600;23.476;2024-03-17T02:27:21;16.67;;;7.97;;
67941;SDS011;54731;42.600;23.476;2024-03-17T02:29:47;17.93;;;8.17;;
67941;SDS011;54731;42.600;23.476;2024-03-17T02:32:12;13.53;;;8.03;;
67941;SDS011;54731;42.600;23.476;2024-03-17T02:34:37;12.93;;;7.90;;
67941;SDS011;54731;42.600;23.476;2024-03-17T02:37:03;12.07;;;6.72;;
67941;SDS011;54731;42.600;23.476;2024-03-17T02:39:29;14.13;;;7.15;;
67941;SDS011;54731;42.600;23.476;2024-03-17T02:41:55;16.08;;;7.72;;
67941;SDS011;54731;42.600;23.476;2024-03-17T02:44:20;14.60;;;7.43;;
67941;SDS011;54731;42.600;23.476;2024-03-17T02:46:46;16.93;;;8.40;;
67941;SDS011;54731;42.600;23.476;2024-03-17T02:49:11;16.23;;;7.32;;
67941;SDS011;54731;42.600;23.476;2024-03-17T02:51:36;13.07;;;7.13;;
67941;SDS011;54731;42.600;23.476;2024-03-17T02:54:02;14.47;;;7.47;;
67941;SDS011;54731;42.600;23.476;2024-03-17T02:56:27;13.90;;;7.43;;
67941;SDS011;54731;42.600;23.476;2024-03-17T02:58:52;14.17;;;7.53;;
67941;SDS011;54731;42.600;23.476;2024-03-17T03:01:18;13.20;;;6.60;;
67941;SDS011;54731;42.600;23.476;2024-03-17T03:03:43;14.17;;;7.17;;
67941;SDS011;54731;42.600;23.476;2024-03-17T03:06:08;15.83;;;7.93;;
67941;SDS011;54731;42.600;23.476;2024-03-17T03:08:40;14.75;;;7.55;;
67941;SDS011;54731;42.600;23.476;2024-03-17T03:11:07;15.02;;;8.30;;
67941;SDS011;54731;42.600;23.476;2024-03-17T03:13:34;13.90;;;7.13;;
67941;SDS011;54731;42.600;23.476;2024-03-17T03:15:59;15.10;;;7.57;;
67941;SDS011;54731;42.600;23.476;2024-03-17T03:18:24;12.50;;;6.88;;
67941;SDS011;54731;42.600;23.476;2024-03-17T03:20:50;14.97;;;7.33;;
67941;SDS011;54731;42.600;23.476;2024-03-17T03:23:16;14.80;;;7.32;;
67941;SDS011;54731;42.600;23.476;2024-03-17T03:25:41;17.05;;;8.05;;
67941;SDS011;54731;42.600;23.476;2024-03-17T03:28:06;15.57;;;7.77;;
67941;SDS011;54731;42.600;23.476;2024-03-17T03:30:35;16.33;;;8.63;;
67941;SDS011;54731;42.600;23.476;2024-03-17T03:33:01;16.77;;;7.88;;
67941;SDS011;54731;42.600;23.476;2024-03-17T03:35:27;19.90;;;9.03;;
67941;SDS011;54731;42.600;23.476;2024-03-17T03:37:53;13.93;;;8.07;;
67941;SDS011;54731;42.600;23.476;2024-03-17T03:40:18;16.38;;;8.10;;
67941;SDS011;54731;42.600;23.476;2024-03-17T03:42:44;16.33;;;7.97;;
67941;SDS011;54731;42.600;23.476;2024-03-17T03:45:10;15.80;;;7.57;;
67941;SDS011;54731;42.600;23.476;2024-03-17T03:47:35;16.63;;;7.45;;
67941;SDS011;54731;42.600;23.476;2024-03-17T03:50:01;15.50;;;8.00;;
67941;SDS011;54731;42.600;23.476;2024-03-17T03:52:26;14.03;;;7.63;;
67941;SDS011;54731;42.600;23.476;2024-03-17T03:54:51;20.20;;;8.63;;
67941;SDS011;54731;42.600;23.476;2024-03-17T03:57:17;17.63;;;8.37;;
67941;SDS011;54731;42.600;23.476;2024-03-17T03:59:42;14.20;;;8.30;;
67941;SDS011;54731;42.600;23.476;2024-03-17T04:02:07;15.57;;;7.90;;
67941;SDS011;54731;42.600;23.476;2024-03-17T04:04:32;19.90;;;8.57;;
67941;SDS011;54731;42.600;23.476;2024-03-17T04:06:58;15.27;;;7.85;;
67941;SDS011;54731;42.600;23.476;2024-03-17T04:09:23;15.50;;;7.47;;
67941;SDS011;54731;42.600;23.476;2024-03-17T04:11:48;18.07;;;8.67;;
67941;SDS011;54731;42.600;23.476;2024-03-17T04:14:14;18.77;;;8.77;;
67941;SDS011;54731;42.600;23.476;2024-03-17T04:16:39;15.10;;;7.70;;
67941;SDS011;54731;42.600;23.476;2024-03-17T04:19:04;15.40;;;7.97;;
67941;SDS011;54731;42.600;23.476;2024-03-17T04:21:30;13.87;;;7.93;;
67941;SDS011;54731;42.600;23.476;2024-03-17T04:23:55;13.97;;;7.70;;
67941;SDS011;54731;42.600;23.476;2024-03-17T04:26:20;18.90;;;7.20;;
67941;SDS011;54731;42.600;23.476;2024-03-17T04:28:45;15.43;;;7.50;;
67941;SDS011;54731;42.600;23.476;2024-03-17T04:31:11;17.00;;;8.38;;
67941;SDS011;54731;42.600;23.476;2024-03-17T04:33:37;14.87;;;7.93;;
67941;SDS011;54731;42.600;23.476;2024-03-17T04:36:02;14.47;;;7.13;;
67941;SDS011;54731;42.600;23.476;2024-03-17T04:38:27;15.02;;;7.78;;
67941;SDS011;54731;42.600;23.476;2024-03-17T04:40:53;15.30;;;8.63;;
67941;SDS011;54731;42.600;23.476;2024-03-17T04:43:19;14.35;;;7.68;;
67941;SDS011;54731;42.600;23.476;2024-03-17T04:45:44;15.85;;;7.68;;
67941;SDS011;54731;42.600;23.476;2024-03-17T04:48:09;19.83;;;8.40;;
67941;SDS011;54731;42.600;23.476;2024-03-17T04:50:35;14.13;;;6.97;;
67941;SDS011;54731;42.600;23.476;2024-03-17T04:53:00;14.90;;;8.13;;
67941;SDS011;54731;42.600;23.476;2024-03-17T04:55:25;16.53;;;8.70;;
67941;SDS011;54731;42.600;23.476;2024-03-17T04:57:51;17.08;;;9.00;;
67941;SDS011;54731;42.600;23.476;2024-03-17T05:00:16;15.27;;;8.70;;
67941;SDS011;54731;42.600;23.476;2024-03-17T05:02:42;18.37;;;8.03;;
67941;SDS011;54731;42.600;23.476;2024-03-17T05:05:08;14.67;;;7.97;;
67941;SDS011;54731;42.600;23.476;2024-03-17T05:07:33;15.10;;;7.80;;
67941;SDS011;54731;42.600;23.476;2024-03-17T05:09:59;15.27;;;8.90;;
67941;SDS011;54731;42.600;23.476;2024-03-17T05:12:24;19.23;;;9.52;;
67941;SDS011;54731;42.600;23.476;2024-03-17T05:14:50;18.20;;;9.10;;
67941;SDS011;54731;42.600;23.476;2024-03-17T05:17:15;19.30;;;8.60;;
67941;SDS011;54731;42.600;23.476;2024-03-17T05:19:40;17.37;;;9.67;;
67941;SDS011;54731;42.600;23.476;2024-03-17T05:22:05;20.07;;;9.17;;
67941;SDS011;54731;42.600;23.476;2024-03-17T05:24:31;19.30;;;9.43;;
67941;SDS011;54731;42.600;23.476;2024-03-17T05:26:56;22.03;;;10.73;;
67941;SDS011;54731;42.600;23.476;2024-03-17T05:29:21;18.57;;;9.17;;
67941;SDS011;54731;42.600;23.476;2024-03-17T05:31:47;23.93;;;11.60;;
67941;SDS011;54731;42.600;23.476;2024-03-17T05:34:12;23.80;;;12.70;;
67941;SDS011;54731;42.600;23.476;2024-03-17T05:36:37;30.00;;;13.75;;
67941;SDS011;54731;42.600;23.476;2024-03-17T05:39:03;24.93;;;12.43;;
67941;SDS011;54731;42.600;23.476;2024-03-17T05:41:28;19.73;;;11.27;;
67941;SDS011;54731;42.600;23.476;2024-03-17T05:43:53;22.93;;;11.27;;
67941;SDS011;54731;42.600;23.476;2024-03-17T05:46:19;21.27;;;12.00;;
67941;SDS011;54731;42.600;23.476;2024-03-17T05:48:44;23.27;;;12.70;;
67941;SDS011;54731;42.600;23.476;2024-03-17T05:51:10;26.88;;;14.40;;
67941;SDS011;54731;42.600;23.476;2024-03-17T05:53:37;29.17;;;15.27;;
67941;SDS011;54731;42.600;23.476;2024-03-17T05:56:03;26.10;;;14.82;;
67941;SDS011;54731;42.600;23.476;2024-03-17T05:58:29;30.80;;;18.33;;
67941;SDS011;54731;42.600;23.476;2024-03-17T06:00:54;31.00;;;16.83;;
67941;SDS011;54731;42.600;23.476;2024-03-17T06:03:20;32.07;;;16.80;;
67941;SDS011;54731;42.600;23.476;2024-03-17T06:05:45;31.25;;;16.48;;
67941;SDS011;54731;42.600;23.476;2024-03-17T06:08:11;38.23;;;20.43;;
67941;SDS011;54731;42.600;23.476;2024-03-17T06:10:37;41.17;;;19.67;;
67941;SDS011;54731;42.600;23.476;2024-03-17T06:13:03;43.03;;;20.88;;
67941;SDS011;54731;42.600;23.476;2024-03-17T06:15:29;33.78;;;17.20;;
67941;SDS011;54731;42.600;23.476;2024-03-17T06:17:55;30.38;;;17.25;;
67941;SDS011;54731;42.600;23.476;2024-03-17T06:20:20;26.63;;;14.85;;
67941;SDS011;54731;42.600;23.476;2024-03-17T06:22:49;27.98;;;15.85;;
67941;SDS011;54731;42.600;23.476;2024-03-17T06:25:15;35.38;;;17.48;;
67941;SDS011;54731;42.600;23.476;2024-03-17T06:27:41;39.50;;;18.95;;
67941;SDS011;54731;42.600;23.476;2024-03-17T06:30:06;39.83;;;19.03;;
67941;SDS011;54731;42.600;23.476;2024-03-17T06:32:36;38.35;;;18.60;;
67941;SDS011;54731;42.600;23.476;2024-03-17T06:35:02;34.00;;;17.57;;
67941;SDS011;54731;42.600;23.476;2024-03-17T06:37:27;42.87;;;19.07;;
67941;SDS011;54731;42.600;23.476;2024-03-17T06:39:52;32.67;;;17.73;;
67941;SDS011;54731;42.600;23.476;2024-03-17T06:42:18;35.33;;;18.60;;
67941;SDS011;54731;42.600;23.476;2024-03-17T06:45:00;35.92;;;17.85;;
67941;SDS011;54731;42.600;23.476;2024-03-17T06:47:26;30.57;;;16.23;;
67941;SDS011;54731;42.600;23.476;2024-03-17T06:49:54;30.27;;;16.73;;
67941;SDS011;54731;42.600;23.476;2024-03-17T06:52:21;31.33;;;17.27;;
67941;SDS011;54731;42.600;23.476;2024-03-17T06:54:52;33.20;;;17.10;;
67941;SDS011;54731;42.600;23.476;2024-03-17T06:57:18;32.05;;;16.20;;
67941;SDS011;54731;42.600;23.476;2024-03-17T06:59:46;28.47;;;15.57;;
67941;SDS011;54731;42.600;23.476;2024-03-17T07:02:14;25.27;;;14.50;;
67941;SDS011;54731;42.600;23.476;2024-03-17T07:04:44;27.10;;;14.52;;
67941;SDS011;54731;42.600;23.476;2024-03-17T07:07:09;30.23;;;15.10;;
67941;SDS011;54731;42.600;23.476;2024-03-17T07:09:35;27.77;;;15.93;;
67941;SDS011;54731;42.600;23.476;2024-03-17T07:12:01;28.13;;;15.40;;
67941;SDS011;54731;42.600;23.476;2024-03-17T07:14:26;28.37;;;15.63;;
67941;SDS011;54731;42.600;23.476;2024-03-17T07:16:51;31.87;;;16.27;;
67941;SDS011;54731;42.600;23.476;2024-03-17T07:19:20;30.17;;;16.23;;
67941;SDS011;54731;42.600;23.476;2024-03-17T07:21:50;29.30;;;16.73;;
67941;SDS011;54731;42.600;23.476;2024-03-17T07:24:16;31.13;;;17.50;;
67941;SDS011;54731;42.600;23.476;2024-03-17T07:26:41;38.65;;;18.38;;
67941;SDS011;54731;42.600;23.476;2024-03-17T07:29:07;31.13;;;16.73;;
67941;SDS011;54731;42.600;23.476;2024-03-17T07:34:35;30.13;;;16.77;;
67941;SDS011;54731;42.600;23.476;2024-03-17T07:37:00;31.87;;;16.33;;
67941;SDS011;54731;42.600;23.476;2024-03-17T07:39:28;26.37;;;16.00;;
67941;SDS011;54731;42.600;23.476;2024-03-17T07:41:56;31.60;;;16.30;;
67941;SDS011;54731;42.600;23.476;2024-03-17T07:44:21;32.73;;;16.93;;
67941;SDS011;54731;42.600;23.476;2024-03-17T07:46:46;28.20;;;16.40;;
67941;SDS011;54731;42.600;23.476;2024-03-17T07:49:12;29.53;;;15.70;;
67941;SDS011;54731;42.600;23.476;2024-03-17T07:51:37;36.20;;;17.17;;
67941;SDS011;54731;42.600;23.476;2024-03-17T07:54:02;29.60;;;16.67;;
67941;SDS011;54731;42.600;23.476;2024-03-17T07:56:27;30.08;;;15.23;;
67941;SDS011;54731;42.600;23.476;2024-03-17T07:58:53;30.30;;;14.53;;
67941;SDS011;54731;42.600;23.476;2024-03-17T08:01:18;31.00;;;15.57;;
67941;SDS011;54731;42.600;23.476;2024-03-17T08:03:44;27.27;;;15.77;;
67941;SDS011;54731;42.600;23.476;2024-03-17T08:06:11;26.35;;;15.88;;
67941;SDS011;54731;42.600;23.476;2024-03-17T08:08:37;30.70;;;15.17;;
67941;SDS011;54731;42.600;23.476;2024-03-17T08:11:03;30.42;;;15.65;;
67941;SDS011;54731;42.600;23.476;2024-03-17T08:13:29;27.15;;;14.45;;
67941;SDS011;54731;42.600;23.476;2024-03-17T08:15:58;27.35;;;15.60;;
67941;SDS011;54731;42.600;23.476;2024-03-17T08:18:25;27.52;;;14.77;;
67941;SDS011;54731;42.600;23.476;2024-03-17T08:20:51;26.13;;;15.13;;
67941;SDS011;54731;42.600;23.476;2024-03-17T08:23:16;27.03;;;14.97;;
67941;SDS011;54731;42.600;23.476;2024-03-17T08:25:41;27.53;;;15.33;;
67941;SDS011;54731;42.600;23.476;2024-03-17T08:28:07;29.13;;;15.40;;
67941;SDS011;54731;42.600;23.476;2024-03-17T08:30:33;25.88;;;14.40;;
67941;SDS011;54731;42.600;23.476;2024-03-17T08:32:58;27.40;;;15.90;;
67941;SDS011;54731;42.600;23.476;2024-03-17T08:35:24;22.60;;;14.18;;
67941;SDS011;54731;42.600;23.476;2024-03-17T08:37:53;25.97;;;15.67;;
67941;SDS011;54731;42.600;23.476;2024-03-17T08:40:18;28.40;;;16.13;;
67941;SDS011;54731;42.600;23.476;2024-03-17T08:42:47;30.00;;;15.77;;
67941;SDS011;54731;42.600;23.476;2024-03-17T08:45:12;26.48;;;15.18;;
67941;SDS011;54731;42.600;23.476;2024-03-17T08:47:37;29.57;;;14.77;;
67941;SDS011;54731;42.600;23.476;2024-03-17T08:50:03;26.20;;;13.70;;
67941;SDS011;54731;42.600;23.476;2024-03-17T08:52:28;30.85;;;17.20;;
67941;SDS011;54731;42.600;23.476;2024-03-17T08:54:54;23.03;;;13.93;;
67941;SDS011;54731;42.600;23.476;2024-03-17T08:57:19;29.13;;;14.93;;
67941;SDS011;54731;42.600;23.476;2024-03-17T08:59:47;22.63;;;13.40;;
67941;SDS011;54731;42.600;23.476;2024-03-17T09:02:13;23.83;;;13.77;;
67941;SDS011;54731;42.600;23.476;2024-03-17T09:04:39;21.38;;;12.45;;
67941;SDS011;54731;42.600;23.476;2024-03-17T09:07:04;22.10;;;13.83;;
67941;SDS011;54731;42.600;23.476;2024-03-17T09:09:29;21.07;;;12.97;;
67941;SDS011;54731;42.600;23.476;2024-03-17T09:11:55;23.80;;;12.17;;
67941;SDS011;54731;42.600;23.476;2024-03-17T09:14:20;24.97;;;13.87;;
67941;SDS011;54731;42.600;23.476;2024-03-17T09:16:46;23.47;;;13.23;;
67941;SDS011;54731;42.600;23.476;2024-03-17T09:19:11;19.60;;;11.55;;
67941;SDS011;54731;42.600;23.476;2024-03-17T09:21:36;21.27;;;12.53;;
67941;SDS011;54731;42.600;23.476;2024-03-17T09:24:02;23.47;;;12.27;;
67941;SDS011;54731;42.600;23.476;2024-03-17T09:26:27;21.20;;;12.03;;
67941;SDS011;54731;42.600;23.476;2024-03-17T09:28:52;26.00;;;12.37;;
67941;SDS011;54731;42.600;23.476;2024-03-17T09:31:18;19.03;;;11.47;;
67941;SDS011;54731;42.600;23.476;2024-03-17T09:33:43;20.67;;;11.17;;
67941;SDS011;54731;42.600;23.476;2024-03-17T09:36:09;17.20;;;9.85;;
67941;SDS011;54731;42.600;23.476;2024-03-17T09:38:34;13.23;;;7.67;;
67941;SDS011;54731;42.600;23.476;2024-03-17T09:41:00;16.38;;;10.18;;
67941;SDS011;54731;42.600;23.476;2024-03-17T09:43:30;16.10;;;9.65;;
67941;SDS011;54731;42.600;23.476;2024-03-17T09:45:58;14.50;;;7.83;;
67941;SDS011;54731;42.600;23.476;2024-03-17T09:48:27;14.85;;;8.02;;
67941;SDS011;54731;42.600;23.476;2024-03-17T09:50:56;10.15;;;6.40;;
67941;SDS011;54731;42.600;23.476;2024-03-17T09:53:26;12.40;;;5.50;;
67941;SDS011;54731;42.600;23.476;2024-03-17T09:56:09;11.20;;;5.63;;
67941;SDS011;54731;42.600;23.476;2024-03-17T09:58:35;9.73;;;6.32;;
67941;SDS011;54731;42.600;23.476;2024-03-17T10:01:01;6.63;;;4.00;;
67941;SDS011;54731;42.600;23.476;2024-03-17T10:03:45;7.53;;;4.93;;
67941;SDS011;54731;42.600;23.476;2024-03-17T10:06:17;11.38;;;6.50;;
67941;SDS011;54731;42.600;23.476;2024-03-17T10:08:44;9.35;;;4.47;;
67941;SDS011;54731;42.600;23.476;2024-03-17T10:11:12;7.32;;;3.97;;
67941;SDS011;54731;42.600;23.476;2024-03-17T10:13:39;9.05;;;5.45;;
67941;SDS011;54731;42.600;23.476;2024-03-17T10:16:04;7.80;;;4.63;;
67941;SDS011;54731;42.600;23.476;2024-03-17T10:18:30;8.88;;;5.70;;
67941;SDS011;54731;42.600;23.476;2024-03-17T10:20:55;11.77;;;6.27;;
67941;SDS011;54731;42.600;23.476;2024-03-17T10:23:21;9.13;;;4.47;;
67941;SDS011;54731;42.600;23.476;2024-03-17T10:25:47;7.88;;;4.90;;
67941;SDS011;54731;42.600;23.476;2024-03-17T10:28:12;7.10;;;3.63;;
67941;SDS011;54731;42.600;23.476;2024-03-17T10:30:39;6.43;;;4.00;;
67941;SDS011;54731;42.600;23.476;2024-03-17T10:33:05;5.15;;;3.45;;
67941;SDS011;54731;42.600;23.476;2024-03-17T10:35:33;5.83;;;3.60;;
67941;SDS011;54731;42.600;23.476;2024-03-17T10:38:00;8.15;;;3.30;;
67941;SDS011;54731;42.600;23.476;2024-03-17T10:40:27;4.55;;;2.53;;
67941;SDS011;54731;42.600;23.476;2024-03-17T10:42:53;4.47;;;2.42;;
67941;SDS011;54731;42.600;23.476;2024-03-17T10:45:19;5.03;;;2.80;;
67941;SDS011;54731;42.600;23.476;2024-03-17T10:47:46;4.80;;;2.90;;
67941;SDS011;54731;42.600;23.476;2024-03-17T10:50:17;4.80;;;3.28;;
67941;SDS011;54731;42.600;23.476;2024-03-17T10:52:44;4.72;;;2.92;;
67941;SDS011;54731;42.600;23.476;2024-03-17T10:55:11;6.07;;;3.50;;
67941;SDS011;54731;42.600;23.476;2024-03-17T10:57:49;5.65;;;3.40;;
67941;SDS011;54731;42.600;23.476;2024-03-17T11:00:17;6.18;;;2.90;;
67941;SDS011;54731;42.600;23.476;2024-03-17T11:02:44;6.38;;;3.05;;
67941;SDS011;54731;42.600;23.476;2024-03-17T11:07:49;6.40;;;3.23;;
67941;SDS011;54731;42.600;23.476;2024-03-17T11:10:18;6.97;;;2.88;;
67941;SDS011;54731;42.600;23.476;2024-03-17T11:12:46;6.90;;;3.63;;
67941;SDS011;54731;42.600;23.476;2024-03-17T11:17:50;7.15;;;3.78;;
67941;SDS011;54731;42.600;23.476;2024-03-17T11:20:26;5.53;;;4.17;;
67941;SDS011;54731;42.600;23.476;2024-03-17T11:22:53;8.52;;;4.68;;
67941;SDS011;54731;42.600;23.476;2024-03-17T11:27:54;9.25;;;4.90;;
67941;SDS011;54731;42.600;23.476;2024-03-17T11:30:41;9.32;;;5.20;;
67941;SDS011;54731;42.600;23.476;2024-03-17T11:39:00;9.82;;;5.35;;
67941;SDS011;54731;42.600;23.476;2024-03-17T11:51:46;7.93;;;3.13;;
67941;SDS011;54731;42.600;23.476;2024-03-17T11:54:13;5.75;;;4.07;;
67941;SDS011;54731;42.600;23.476;2024-03-17T11:56:40;6.78;;;4.00;;
67941;SDS011;54731;42.600;23.476;2024-03-17T11:59:06;4.50;;;3.20;;
67941;SDS011;54731;42.600;23.476;2024-03-17T12:01:31;6.68;;;3.17;;
67941;SDS011;54731;42.600;23.476;2024-03-17T12:03:56;5.90;;;3.50;;
67941;SDS011;54731;42.600;23.476;2024-03-17T12:06:23;7.72;;;4.82;;
67941;SDS011;54731;42.600;23.476;2024-03-17T12:08:51;8.43;;;5.80;;
67941;SDS011;54731;42.600;23.476;2024-03-17T12:11:17;7.73;;;4.57;;
67941;SDS011;54731;42.600;23.476;2024-03-17T12:13:42;9.52;;;4.10;;
67941;SDS011;54731;42.600;23.476;2024-03-17T12:16:11;7.07;;;4.50;;
67941;SDS011;54731;42.600;23.476;2024-03-17T12:18:37;7.20;;;4.77;;
67941;SDS011;54731;42.600;23.476;2024-03-17T12:21:03;6.32;;;4.30;;
67941;SDS011;54731;42.600;23.476;2024-03-17T12:23:28;11.70;;;4.63;;
67941;SDS011;54731;42.600;23.476;2024-03-17T12:25:53;8.00;;;5.10;;
67941;SDS011;54731;42.600;23.476;2024-03-17T12:28:19;12.38;;;5.63;;
67941;SDS011;54731;42.600;23.476;2024-03-17T12:30:45;7.93;;;5.07;;
67941;SDS011;54731;42.600;23.476;2024-03-17T12:33:10;8.13;;;4.93;;
67941;SDS011;54731;42.600;23.476;2024-03-17T12:35:36;8.80;;;4.70;;
67941;SDS011;54731;42.600;23.476;2024-03-17T12:38:18;6.43;;;4.00;;
67941;SDS011;54731;42.600;23.476;2024-03-17T12:40:45;7.32;;;3.90;;
67941;SDS011;54731;42.600;23.476;2024-03-17T12:43:12;10.80;;;4.40;;
67941;SDS011;54731;42.600;23.476;2024-03-17T12:45:37;8.07;;;4.18;;
67941;SDS011;54731;42.600;23.476;2024-03-17T12:48:03;6.25;;;3.97;;
67941;SDS011;54731;42.600;23.476;2024-03-17T12:50:28;7.70;;;4.70;;
67941;SDS011;54731;42.600;23.476;2024-03-17T12:52:54;7.93;;;4.67;;
67941;SDS011;54731;42.600;23.476;2024-03-17T12:55:20;9.55;;;4.40;;
67941;SDS011;54731;42.600;23.476;2024-03-17T12:57:46;6.95;;;4.00;;
67941;SDS011;54731;42.600;23.476;2024-03-17T13:00:17;8.75;;;4.20;;
67941;SDS011;54731;42.600;23.476;2024-03-17T13:02:44;7.78;;;4.22;;
67941;SDS011;54731;42.600;23.476;2024-03-17T13:05:19;6.80;;;4.50;;
67941;SDS011;54731;42.600;23.476;2024-03-17T13:07:45;10.02;;;4.32;;
67941;SDS011;54731;42.600;23.476;2024-03-17T13:10:10;11.27;;;4.70;;
67941;SDS011;54731;42.600;23.476;2024-03-17T13:12:35;7.10;;;4.10;;
67941;SDS011;54731;42.600;23.476;2024-03-17T13:15:01;9.88;;;5.05;;
67941;SDS011;54731;42.600;23.476;2024-03-17T13:17:27;8.53;;;4.00;;
67941;SDS011;54731;42.600;23.476;2024-03-17T13:19:52;7.67;;;4.80;;
67941;SDS011;54731;42.600;23.476;2024-03-17T13:22:17;6.38;;;3.72;;
67941;SDS011;54731;42.600;23.476;2024-03-17T13:24:43;8.50;;;4.93;;
67941;SDS011;54731;42.600;23.476;2024-03-17T13:27:08;5.80;;;3.43;;
67941;SDS011;54731;42.600;23.476;2024-03-17T13:29:34;5.03;;;3.67;;
67941;SDS011;54731;42.600;23.476;2024-03-17T13:32:02;7.32;;;4.50;;
67941;SDS011;54731;42.600;23.476;2024-03-17T13:34:28;6.87;;;4.17;;
67941;SDS011;54731;42.600;23.476;2024-03-17T13:36:53;6.72;;;4.10;;
67941;SDS011;54731;42.600;23.476;2024-03-17T13:39:18;6.23;;;4.60;;
67941;SDS011;54731;42.600;23.476;2024-03-17T13:41:44;8.67;;;4.80;;
67941;SDS011;54731;42.600;23.476;2024-03-17T13:44:09;7.87;;;4.77;;
67941;SDS011;54731;42.600;23.476;2024-03-17T13:46:34;11.03;;;5.30;;
67941;SDS011;54731;42.600;23.476;2024-03-17T13:49:06;7.90;;;5.13;;
67941;SDS011;54731;42.600;23.476;2024-03-17T13:51:32;11.73;;;4.90;;
67941;SDS011;54731;42.600;23.476;2024-03-17T13:53:58;8.87;;;5.10;;
67941;SDS011;54731;42.600;23.476;2024-03-17T13:56:23;10.00;;;5.20;;
67941;SDS011;54731;42.600;23.476;2024-03-17T13:58:51;7.57;;;4.70;;
67941;SDS011;54731;42.600;23.476;2024-03-17T14:01:17;11.13;;;5.65;;
67941;SDS011;54731;42.600;23.476;2024-03-17T14:03:42;10.90;;;5.90;;
67941;SDS011;54731;42.600;23.476;2024-03-17T14:06:07;9.43;;;5.70;;
67941;SDS011;54731;42.600;23.476;2024-03-17T14:08:33;9.35;;;6.30;;
67941;SDS011;54731;42.600;23.476;2024-03-17T14:10:58;10.83;;;6.40;;
67941;SDS011;54731;42.600;23.476;2024-03-17T14:13:23;11.17;;;6.97;;
67941;SDS011;54731;42.600;23.476;2024-03-17T14:15:49;15.20;;;8.93;;
67941;SDS011;54731;42.600;23.476;2024-03-17T14:18:14;14.93;;;7.23;;
67941;SDS011;54731;42.600;23.476;2024-03-17T14:20:39;12.47;;;6.20;;
67941;SDS011;54731;42.600;23.476;2024-03-17T14:23:05;10.43;;;5.73;;
67941;SDS011;54731;42.600;23.476;2024-03-17T14:25:30;11.57;;;7.20;;
67941;SDS011;54731;42.600;23.476;2024-03-17T14:27:55;8.50;;;5.72;;
67941;SDS011;54731;42.600;23.476;2024-03-17T14:30:20;11.95;;;6.68;;
67941;SDS011;54731;42.600;23.476;2024-03-17T14:32:46;21.37;;;9.03;;
67941;SDS011;54731;42.600;23.476;2024-03-17T14:35:12;11.90;;;7.53;;
67941;SDS011;54731;42.600;23.476;2024-03-17T14:37:39;9.05;;;5.43;;
67941;SDS011;54731;42.600;23.476;2024-03-17T14:40:04;10.03;;;6.07;;
67941;SDS011;54731;42.600;23.476;2024-03-17T14:42:30;16.20;;;10.68;;